createdAt,value
2023-01-28T00:00:11.535Z,17.37
2023-01-28T00:01:21.135Z,17.77
2023-01-28T00:02:30.513Z,17.22
2023-01-28T00:03:39.876Z,18.47
2023-01-28T00:04:49.199Z,18.78
2023-01-28T00:07:24.003Z,19.92
2023-01-28T00:09:52.346Z,21.10
2023-01-28T00:11:03.267Z,21.92
2023-01-28T00:12:11.811Z,22.78
2023-01-28T00:13:20.692Z,21.18
2023-01-28T00:14:30.232Z,24.48
2023-01-28T00:16:54.586Z,24.42
2023-01-28T00:18:05.443Z,24.22
2023-01-28T00:20:23.708Z,22.30
2023-01-28T00:21:34.560Z,22.15
2023-01-28T00:23:58.896Z,22.43
2023-01-28T00:25:07.712Z,23.88
2023-01-28T00:27:45.777Z,18.67
2023-01-28T00:30:05.129Z,16.60
2023-01-28T00:31:20.313Z,15.62
2023-01-28T00:32:28.936Z,15.77
2023-01-28T00:33:38.566Z,16.25
2023-01-28T00:34:50.095Z,16.60
2023-01-28T00:36:04.655Z,16.47
2023-01-28T00:37:14.210Z,17.18
2023-01-28T00:38:24.168Z,16.55
2023-01-28T00:39:33.992Z,17.75
2023-01-28T00:41:59.369Z,16.77
2023-01-28T00:43:08.125Z,17.02
2023-01-28T00:44:17.213Z,17.92
2023-01-28T00:45:26.944Z,16.98
2023-01-28T00:46:37.167Z,18.40
2023-01-28T00:47:48.012Z,17.68
2023-01-28T00:50:06.684Z,18.67
2023-01-28T00:51:18.010Z,18.80
2023-01-28T00:52:27.152Z,20.02
2023-01-28T00:53:38.265Z,22.42
2023-01-28T00:54:48.316Z,22.03
2023-01-28T00:57:12.668Z,21.88
2023-01-28T00:58:23.583Z,19.80
2023-01-28T01:00:42.142Z,21.10
2023-01-28T01:01:52.253Z,22.68
2023-01-28T01:03:02.985Z,22.60
2023-01-28T01:04:12.637Z,23.78
2023-01-28T01:05:21.726Z,24.18
2023-01-28T01:06:35.612Z,22.78
2023-01-28T01:07:44.351Z,23.98
2023-01-28T01:08:52.994Z,21.90
2023-01-28T01:10:11.822Z,23.92
2023-01-28T01:11:21.240Z,23.18
2023-01-28T01:12:30.940Z,22.88
2023-01-28T01:13:42.130Z,23.65
2023-01-28T01:14:50.669Z,23.97
2023-01-28T01:16:04.997Z,20.45
2023-01-28T01:17:13.996Z,19.17
2023-01-28T01:18:23.552Z,18.78
2023-01-28T01:19:32.292Z,17.42
2023-01-28T01:21:59.179Z,17.00
2023-01-28T01:23:08.221Z,16.37
2023-01-28T01:24:18.051Z,17.34
2023-01-28T01:25:27.025Z,17.77
2023-01-28T01:26:36.924Z,19.15
2023-01-28T01:27:50.832Z,17.48
2023-01-28T01:29:00.893Z,19.40
2023-01-28T01:30:12.274Z,16.70
2023-01-28T01:31:23.118Z,17.33
2023-01-28T01:32:35.433Z,16.45
2023-01-28T01:33:46.751Z,15.70
2023-01-28T01:34:56.972Z,15.05
2023-01-28T01:36:08.599Z,14.23
2023-01-28T01:37:17.254Z,14.20
2023-01-28T01:38:27.553Z,15.52
2023-01-28T01:39:37.615Z,16.70
2023-01-28T01:40:50.079Z,16.83
2023-01-28T01:41:59.713Z,16.97
2023-01-28T01:45:08.972Z,17.87
2023-01-28T01:47:47.595Z,17.62
2023-01-28T01:49:00.477Z,16.85
2023-01-28T01:50:19.871Z,16.20
2023-01-28T01:52:50.829Z,15.15
2023-01-28T01:54:01.251Z,14.03
2023-01-28T05:52:30.113Z,26.50
2023-01-28T05:53:42.804Z,21.77
2023-01-28T05:54:52.686Z,20.60
2023-01-28T05:56:03.713Z,19.38
2023-01-28T05:57:14.395Z,18.95
2023-01-28T05:58:25.337Z,17.90
2023-01-28T05:59:34.090Z,18.20
2023-01-28T06:00:43.935Z,17.22
2023-01-28T06:01:54.787Z,17.08
2023-01-28T06:04:19.605Z,16.90
2023-01-28T06:05:29.587Z,17.38
2023-01-28T06:07:55.009Z,17.57
2023-01-28T06:09:04.445Z,18.07
2023-01-28T06:11:33.586Z,19.00
2023-01-28T06:12:44.905Z,18.08
2023-01-28T06:15:17.811Z,18.63
2023-01-28T06:16:30.960Z,17.20
2023-01-28T06:17:47.657Z,18.60
2023-01-28T06:18:58.633Z,18.15
2023-01-28T06:20:10.129Z,16.68
2023-01-28T06:21:21.069Z,15.00
2023-01-28T06:22:29.693Z,17.00
2023-01-28T06:23:39.098Z,16.95
2023-01-28T06:24:50.512Z,16.52
2023-01-28T06:26:00.666Z,16.95
2023-01-28T06:27:09.438Z,18.15
2023-01-28T06:28:18.700Z,17.52
2023-01-28T06:29:27.596Z,19.77
2023-01-28T06:30:36.599Z,18.38
2023-01-28T06:31:45.927Z,17.15
2023-01-28T06:32:56.919Z,16.98
2023-01-28T06:36:30.716Z,14.60
2023-01-28T06:37:41.580Z,16.15
2023-01-28T06:39:59.495Z,15.28
2023-01-28T06:41:09.478Z,14.68
2023-01-28T06:43:32.999Z,14.60
2023-01-28T06:44:41.498Z,16.55
2023-01-28T06:45:50.507Z,15.86
2023-01-28T06:46:59.209Z,15.68
2023-01-28T06:48:09.000Z,15.73
2023-01-28T06:49:19.933Z,15.80
2023-01-28T06:50:29.898Z,15.40
2023-01-28T06:52:53.859Z,17.35
2023-01-28T06:54:03.187Z,20.05
2023-01-28T06:55:11.900Z,21.57
2023-01-28T06:56:22.038Z,21.10
2023-01-28T06:57:31.694Z,22.42
2023-01-28T06:58:41.276Z,22.93
2023-01-28T06:59:49.991Z,23.03
2023-01-28T07:00:59.949Z,24.50
2023-01-28T07:02:12.265Z,26.30
2023-01-28T07:03:21.887Z,23.45
2023-01-28T07:04:31.920Z,24.94
2023-01-28T07:05:40.904Z,22.38
2023-01-28T07:06:50.054Z,23.97
2023-01-28T07:08:00.779Z,25.58
2023-01-28T07:09:09.642Z,25.43
2023-01-28T07:10:18.675Z,21.22
2023-01-28T07:11:27.864Z,22.32
2023-01-28T07:12:37.519Z,23.08
2023-01-28T07:13:47.090Z,23.20
2023-01-28T07:14:55.925Z,24.05
2023-01-28T07:16:06.646Z,23.08
2023-01-28T07:17:16.198Z,24.60
2023-01-28T07:18:26.097Z,24.52
2023-01-28T07:19:35.799Z,21.38
2023-01-28T07:20:45.407Z,23.85
2023-01-28T07:21:56.051Z,22.33
2023-01-28T07:23:05.073Z,20.83
2023-01-28T07:24:13.788Z,21.00
2023-01-28T07:25:23.757Z,19.28
2023-01-28T07:26:32.993Z,18.93
2023-01-28T07:27:52.659Z,20.85
2023-01-28T07:29:01.932Z,18.45
2023-01-28T07:30:12.143Z,20.85
2023-01-28T07:31:21.387Z,20.33
2023-01-28T07:32:31.938Z,19.83
2023-01-28T07:33:40.804Z,19.15
2023-01-28T07:34:50.337Z,19.75
2023-01-28T07:35:59.074Z,19.22
2023-01-28T07:37:07.931Z,21.30
2023-01-28T07:38:16.596Z,22.18
2023-01-28T07:39:25.487Z,22.05
2023-01-28T07:40:35.089Z,22.92
2023-01-28T07:43:00.368Z,23.00
2023-01-28T07:44:09.745Z,22.82
2023-01-28T07:45:19.473Z,24.08
2023-01-28T07:46:28.707Z,23.30
2023-01-28T07:47:37.495Z,24.75
2023-01-28T07:48:46.336Z,20.22
2023-01-28T07:49:56.851Z,20.15
2023-01-28T07:51:06.478Z,19.90
2023-01-28T07:52:15.498Z,16.18
2023-01-28T07:54:39.961Z,20.05
2023-01-28T07:55:49.743Z,21.02
2023-01-28T07:56:58.471Z,20.90
2023-01-28T07:59:24.840Z,21.75
2023-01-28T08:00:36.711Z,22.87
2023-01-28T08:01:45.729Z,22.97
2023-01-28T08:04:15.076Z,22.20
2023-01-28T08:06:42.251Z,20.90
2023-01-28T08:07:52.865Z,20.02
2023-01-28T08:09:02.495Z,20.90
2023-01-28T08:11:27.376Z,20.68
2023-01-28T08:12:36.066Z,20.80
2023-01-28T08:13:44.595Z,17.95
2023-01-28T08:14:53.345Z,19.18
2023-01-28T08:16:06.188Z,19.18
2023-01-28T08:17:15.108Z,18.10
2023-01-28T08:18:24.137Z,16.85
2023-01-28T08:19:34.123Z,16.15
2023-01-28T08:21:59.900Z,13.42
2023-01-28T08:23:16.744Z,15.17
2023-01-28T08:24:25.501Z,13.93
2023-01-28T08:25:35.519Z,17.37
2023-01-28T08:26:46.276Z,17.17
2023-01-28T08:27:54.809Z,16.25
2023-01-28T08:29:04.399Z,16.32
2023-01-28T08:30:15.667Z,17.00
2023-01-28T08:31:28.651Z,18.32
2023-01-28T08:32:37.604Z,20.03
2023-01-28T08:33:46.168Z,21.10
2023-01-28T08:36:10.307Z,19.77
2023-01-28T08:37:19.373Z,21.58
2023-01-28T08:38:28.325Z,19.52
2023-01-28T08:39:37.118Z,21.72
2023-01-28T08:40:48.557Z,21.23
2023-01-28T08:43:13.302Z,21.62
2023-01-28T08:44:21.854Z,20.17
2023-01-28T08:45:31.487Z,21.18
2023-01-28T08:46:40.264Z,22.07
2023-01-28T08:47:56.201Z,17.33
2023-01-28T08:49:05.563Z,18.00
2023-01-28T08:50:16.368Z,16.40
2023-01-28T08:51:26.141Z,17.68
2023-01-28T08:52:36.078Z,17.55
2023-01-28T08:53:45.066Z,18.50
2023-01-28T08:55:00.474Z,18.68
2023-01-28T08:56:10.009Z,19.05
2023-01-28T08:57:18.544Z,18.97
2023-01-28T08:58:28.251Z,18.65
2023-01-28T08:59:38.685Z,18.42
2023-01-28T09:00:49.379Z,18.48
2023-01-28T09:01:58.240Z,20.45
2023-01-28T09:03:07.275Z,19.58
2023-01-28T09:04:15.895Z,16.67
2023-01-28T09:05:25.188Z,17.05
2023-01-28T09:07:50.372Z,22.65
2023-01-28T09:09:00.411Z,17.63
2023-01-28T09:10:10.750Z,18.12
2023-01-28T09:11:19.912Z,18.75
2023-01-28T09:12:29.007Z,19.02
2023-01-28T09:13:37.725Z,20.32
2023-01-28T09:14:46.226Z,20.40
2023-01-28T09:15:55.866Z,18.77
2023-01-28T09:17:05.314Z,21.07
2023-01-28T09:18:14.616Z,19.12
2023-01-28T09:19:23.118Z,22.13
2023-01-28T09:20:32.659Z,21.50
2023-01-28T09:21:42.201Z,20.38
2023-01-28T09:22:51.417Z,21.92
2023-01-28T09:24:00.001Z,21.42
2023-01-28T09:25:09.475Z,21.32
2023-01-28T09:26:19.086Z,21.70
2023-01-28T09:27:29.349Z,21.37
2023-01-28T09:28:40.045Z,21.45
2023-01-28T09:29:48.582Z,21.15
2023-01-28T09:32:21.050Z,19.67
2023-01-28T09:33:30.607Z,19.00
2023-01-28T09:34:40.482Z,20.67
2023-01-28T09:35:50.354Z,20.58
2023-01-28T09:37:00.725Z,21.48
2023-01-28T09:38:10.267Z,20.88
2023-01-28T09:39:18.876Z,20.12
2023-01-28T09:42:01.968Z,21.25
2023-01-28T09:45:16.209Z,19.92
2023-01-28T09:47:52.831Z,18.97
2023-01-28T09:50:31.142Z,20.75
2023-01-28T14:16:06.104Z,7.77
2023-01-28T14:18:44.670Z,11.12
2023-01-28T14:19:54.320Z,9.13
2023-01-28T14:22:26.341Z,9.02
2023-01-28T14:23:37.720Z,9.98
2023-01-28T14:24:47.739Z,10.50
2023-01-28T14:26:17.474Z,8.45
2023-01-28T14:27:38.647Z,8.20
2023-01-28T14:28:57.367Z,9.17
2023-01-28T14:30:10.371Z,8.10
2023-01-28T14:31:34.253Z,6.83
2023-01-28T14:32:48.964Z,7.98
2023-01-28T14:35:20.186Z,7.95
2023-01-28T14:36:31.180Z,8.00
2023-01-28T14:37:41.942Z,7.60
2023-01-28T14:38:50.647Z,7.88
2023-01-28T14:40:05.876Z,8.65
2023-01-28T14:42:52.424Z,6.72
2023-01-28T14:44:02.031Z,7.28
2023-01-28T14:45:20.881Z,7.77
2023-01-28T14:48:11.535Z,7.65
2023-01-28T14:49:23.795Z,8.78
2023-01-28T14:51:09.694Z,9.17
2023-01-28T14:52:28.557Z,8.67
2023-01-28T14:53:44.468Z,8.87
2023-01-28T14:56:46.484Z,7.42
2023-01-28T14:58:08.532Z,7.65
2023-01-28T14:59:24.785Z,8.20
2023-01-28T15:00:36.277Z,7.73
2023-01-28T15:01:48.249Z,7.72
2023-01-28T15:02:57.933Z,7.77
2023-01-28T15:05:28.689Z,7.87
2023-01-28T15:06:38.261Z,7.65
2023-01-28T15:07:48.581Z,7.27
2023-01-28T15:10:35.624Z,7.10
2023-01-28T15:11:48.383Z,6.68
2023-01-28T15:13:06.874Z,6.47
2023-01-28T15:15:54.568Z,6.62
2023-01-28T15:17:05.157Z,6.58
2023-01-28T15:19:37.466Z,5.85
2023-01-28T15:20:48.277Z,6.55
2023-01-28T15:22:01.138Z,6.40
2023-01-28T15:23:12.069Z,6.78
2023-01-28T15:26:48.105Z,6.00
2023-01-28T15:28:01.267Z,6.35
2023-01-28T15:29:26.324Z,6.67
2023-01-28T15:30:35.318Z,6.00
2023-01-28T15:33:15.972Z,7.48
2023-01-28T15:34:32.182Z,6.73
2023-01-28T15:35:56.716Z,6.95
2023-01-28T15:37:06.489Z,6.97
2023-01-28T15:38:18.364Z,6.90
2023-01-28T15:39:29.492Z,6.85
2023-01-28T15:42:04.094Z,7.72
2023-01-28T15:44:38.302Z,9.42
2023-01-28T15:45:49.968Z,11.87
2023-01-28T15:47:02.111Z,11.05
2023-01-28T15:48:12.023Z,11.00
2023-01-28T15:49:21.921Z,12.12
2023-01-28T15:50:30.977Z,12.10
2023-01-28T15:51:40.025Z,12.53
2023-01-28T15:52:51.329Z,11.93
2023-01-28T15:54:03.922Z,12.85
2023-01-28T15:55:37.042Z,12.47
2023-01-28T15:56:47.249Z,12.37
2023-01-28T15:57:56.645Z,15.05
2023-01-28T16:00:36.673Z,17.83
2023-01-28T16:01:45.654Z,19.53
2023-01-28T16:02:54.816Z,17.55
2023-01-28T16:04:07.280Z,15.80
2023-01-28T16:05:34.382Z,16.78
2023-01-28T16:06:45.082Z,16.77
2023-01-28T16:07:56.850Z,16.67
2023-01-28T16:09:12.119Z,15.18
2023-01-28T16:10:25.444Z,15.87
2023-01-28T16:13:01.989Z,17.10
2023-01-28T16:14:26.570Z,16.27
2023-01-28T16:16:56.937Z,13.42
2023-01-28T16:18:07.505Z,15.32
2023-01-28T16:19:23.739Z,12.95
2023-01-28T16:20:33.081Z,12.45
2023-01-28T16:21:46.917Z,12.70
2023-01-28T16:22:59.567Z,13.75
2023-01-28T16:24:23.025Z,67.45
2023-01-28T16:25:36.310Z,16.70
2023-01-28T16:28:07.612Z,13.63
2023-01-28T16:29:18.887Z,13.70
2023-01-28T16:30:30.552Z,16.75
2023-01-28T16:31:39.335Z,17.88
2023-01-28T16:32:48.343Z,15.73
2023-01-28T16:33:57.929Z,15.08
2023-01-28T16:36:35.198Z,13.23
2023-01-28T16:37:46.052Z,12.67
2023-01-28T16:40:04.926Z,12.40
2023-01-28T16:42:41.158Z,11.94
2023-01-28T16:43:50.118Z,11.95
2023-01-28T16:45:00.042Z,12.80
2023-01-28T16:47:28.193Z,11.57
2023-01-28T16:48:36.983Z,11.27
2023-01-28T16:49:47.409Z,13.02
2023-01-28T16:50:56.570Z,11.15
2023-01-28T16:52:05.987Z,12.22
2023-01-28T16:53:27.414Z,11.28
2023-01-28T16:55:46.204Z,10.05
2023-01-28T16:56:56.410Z,10.43
2023-01-28T16:59:20.484Z,10.38
2023-01-28T17:00:31.196Z,11.65
2023-01-28T17:01:40.122Z,11.58
2023-01-28T17:04:26.374Z,10.67
2023-01-28T17:05:34.885Z,9.55
2023-01-28T17:06:45.962Z,10.65
2023-01-28T17:09:13.117Z,10.22
2023-01-28T17:12:47.890Z,10.35
2023-01-28T17:13:57.127Z,11.18
2023-01-28T17:16:43.290Z,10.82
2023-01-28T17:17:53.258Z,11.60
2023-01-28T17:19:02.309Z,12.00
2023-01-28T17:20:12.279Z,12.45
2023-01-28T17:21:21.394Z,12.53
2023-01-28T17:22:30.867Z,12.05
2023-01-28T17:23:39.496Z,12.80
2023-01-28T17:24:48.405Z,11.77
2023-01-28T17:26:07.004Z,11.53
2023-01-28T17:27:16.166Z,11.05
2023-01-28T17:28:25.836Z,12.42
2023-01-28T17:30:49.968Z,10.80
2023-01-28T17:33:14.658Z,12.20
2023-01-28T17:34:27.317Z,19.07
2023-01-28T17:35:36.837Z,11.68
2023-01-28T17:36:46.551Z,10.72
2023-01-28T17:37:55.477Z,10.03
2023-01-28T17:39:06.680Z,11.92
2023-01-28T17:40:16.120Z,10.53
2023-01-28T17:42:40.132Z,11.38
2023-01-28T17:45:11.367Z,11.00
2023-01-28T17:46:22.345Z,10.35
2023-01-28T22:00:54.749Z,12.85
2023-01-28T22:02:07.354Z,10.52
2023-01-28T22:03:15.855Z,10.22
2023-01-28T22:04:27.446Z,9.30
2023-01-28T22:05:35.973Z,10.17
2023-01-28T22:06:45.316Z,10.07
2023-01-28T22:07:54.457Z,10.50
2023-01-28T22:10:18.965Z,20.40
2023-01-28T22:11:29.050Z,9.60
2023-01-28T22:12:37.564Z,8.57
2023-01-28T22:13:46.849Z,10.10
2023-01-28T22:16:11.843Z,9.83
2023-01-28T22:18:35.883Z,9.20
2023-01-28T22:19:46.478Z,9.62
2023-01-28T22:22:12.212Z,9.42
2023-01-28T22:23:21.193Z,9.28
2023-01-28T22:24:30.341Z,9.58
2023-01-28T22:25:39.333Z,9.53
2023-01-28T22:26:48.909Z,8.77
2023-01-28T22:27:58.525Z,9.42
2023-01-28T22:29:08.894Z,10.40
2023-01-28T22:30:18.487Z,9.80
2023-01-28T22:31:27.757Z,11.20
2023-01-28T22:32:36.341Z,12.47
2023-01-28T22:33:45.823Z,11.47
2023-01-28T22:34:54.678Z,10.80
2023-01-28T22:36:19.135Z,10.57
2023-01-28T22:37:29.036Z,12.07
2023-01-28T22:38:38.822Z,10.53
2023-01-28T22:39:48.101Z,12.13
2023-01-28T22:42:22.559Z,11.45
2023-01-28T22:43:31.475Z,10.92
2023-01-28T22:44:39.991Z,10.77
2023-01-28T22:45:48.525Z,9.50
2023-01-28T22:46:57.183Z,10.85
2023-01-28T22:48:06.390Z,9.72
2023-01-28T22:49:15.380Z,9.33
2023-01-28T22:50:26.363Z,9.20
2023-01-28T22:52:44.275Z,9.78
2023-01-28T22:53:53.570Z,10.18
2023-01-28T22:55:03.941Z,9.42
2023-01-28T22:56:14.370Z,9.65
2023-01-28T22:57:23.456Z,10.75
2023-01-28T22:58:32.139Z,11.00
2023-01-28T22:59:51.203Z,9.70
2023-01-28T23:00:54.654Z,10.37
2023-01-28T23:02:04.298Z,10.75
2023-01-28T23:03:13.502Z,11.15
2023-01-28T23:04:23.401Z,10.90
2023-01-28T23:05:31.957Z,11.65
2023-01-28T23:06:40.789Z,10.60
2023-01-28T23:07:49.584Z,11.40
2023-01-28T23:08:58.952Z,11.50
2023-01-28T23:10:10.032Z,11.67
2023-01-28T23:12:40.446Z,11.47
2023-01-28T23:14:08.400Z,11.45
2023-01-28T23:15:36.457Z,11.65
2023-01-28T23:17:05.712Z,12.17
2023-01-28T23:18:39.935Z,11.05
2023-01-28T23:20:09.142Z,9.80
2023-01-28T23:21:39.965Z,10.78
2023-01-28T23:23:07.041Z,11.60
2023-01-28T23:25:34.891Z,10.08
2023-01-28T23:26:43.821Z,9.83
2023-01-28T23:27:52.452Z,10.07
2023-01-28T23:29:01.083Z,9.67
2023-01-28T23:30:12.735Z,10.65
2023-01-28T23:31:21.444Z,10.50
2023-01-28T23:32:30.484Z,10.50
2023-01-28T23:33:41.169Z,10.10
2023-01-28T23:34:49.990Z,10.60
2023-01-28T23:35:58.740Z,10.33
2023-01-28T23:37:09.983Z,10.23
2023-01-28T23:39:27.242Z,9.45
2023-01-28T23:40:36.459Z,9.82
2023-01-28T23:41:44.995Z,8.77
2023-01-28T23:42:55.296Z,9.97
2023-01-28T23:44:04.985Z,8.90
2023-01-28T23:46:39.022Z,11.60
2023-01-28T23:47:40.968Z,11.38
2023-01-28T23:48:52.156Z,11.82
2023-01-28T23:50:01.872Z,11.70
2023-01-28T23:51:11.441Z,12.17
2023-01-28T23:52:20.555Z,11.82
2023-01-28T23:53:29.182Z,12.75
2023-01-28T23:54:37.695Z,11.98
2023-01-28T23:57:02.451Z,10.60
2023-01-28T23:58:11.976Z,9.62
2023-01-28T23:59:21.934Z,10.88
